createdAt,value
2022-11-05T00:01:46.384Z,463.6
2022-11-05T00:05:49.959Z,463.6
2022-11-05T00:09:43.108Z,463.6
2022-11-05T00:13:43.744Z,463.6
2022-11-05T00:17:43.408Z,463.6
2022-11-05T00:21:43.441Z,463.6
2022-11-05T00:25:43.282Z,463.6
2022-11-05T00:29:42.468Z,463.6
2022-11-05T00:33:43.820Z,463.6
2022-11-05T00:37:48.714Z,463.6
2022-11-05T00:41:43.532Z,463.6
2022-11-05T00:45:43.394Z,463.6
2022-11-05T00:49:43.462Z,463.6
2022-11-05T00:53:43.978Z,463.6
2022-11-05T00:57:49.587Z,463.6
2022-11-05T01:01:46.624Z,463.6
2022-11-05T01:05:42.527Z,463.6
2022-11-05T01:09:42.881Z,463.6
2022-11-05T01:13:47.209Z,463.6
2022-11-05T01:17:43.505Z,463.6
2022-11-05T01:21:43.027Z,463.6
2022-11-05T01:25:42.940Z,463.6
2022-11-05T01:29:43.273Z,463.6
2022-11-05T01:33:43.298Z,463.6
2022-11-05T01:37:42.927Z,463.6
2022-11-05T01:41:42.920Z,463.6
2022-11-05T01:45:43.044Z,463.6
2022-11-05T01:49:48.523Z,463.6
2022-11-05T01:53:43.529Z,463.6
2022-11-05T01:57:43.343Z,463.6
2022-11-05T02:01:45.916Z,463.6
2022-11-05T02:05:43.324Z,463.6
2022-11-05T02:09:43.097Z,463.6
2022-11-05T02:13:43.737Z,463.6
2022-11-05T02:17:42.619Z,463.6
2022-11-05T02:21:48.594Z,463.6
2022-11-05T02:25:43.420Z,463.6
2022-11-05T02:29:42.732Z,463.6
2022-11-05T02:33:43.482Z,463.6
2022-11-05T02:37:43.557Z,463.6
2022-11-05T02:41:43.761Z,463.6
2022-11-05T02:45:43.382Z,463.6
2022-11-05T02:49:43.599Z,463.6
2022-11-05T02:53:43.671Z,463.6
2022-11-05T02:57:43.205Z,463.6
2022-11-05T03:01:47.698Z,463.6
2022-11-05T03:05:43.095Z,463.6
2022-11-05T03:09:43.158Z,463.6
2022-11-05T03:13:43.289Z,463.6
2022-11-05T03:17:42.523Z,463.6
2022-11-05T03:21:43.017Z,463.6
2022-11-05T03:25:43.145Z,463.6
2022-11-05T03:29:43.317Z,463.6
2022-11-05T03:33:43.793Z,463.6
2022-11-05T03:37:43.038Z,463.6
2022-11-05T03:41:42.814Z,463.6
2022-11-05T03:45:43.119Z,463.6
2022-11-05T03:49:43.606Z,463.6
2022-11-05T03:53:43.349Z,463.6
2022-11-05T03:57:42.519Z,463.6
2022-11-05T04:01:46.046Z,463.6
2022-11-05T04:05:43.196Z,463.6
2022-11-05T04:09:44.792Z,463.6
2022-11-05T04:13:43.339Z,463.6
2022-11-05T04:17:43.098Z,463.6
2022-11-05T04:21:42.809Z,463.6
2022-11-05T04:25:42.945Z,463.6
2022-11-05T04:29:48.847Z,463.6
2022-11-05T04:33:43.795Z,463.6
2022-11-05T04:37:43.403Z,463.6
2022-11-05T04:41:43.262Z,463.6
2022-11-05T04:45:43.140Z,463.6
2022-11-05T04:49:43.459Z,463.6
2022-11-05T04:53:43.885Z,463.6
2022-11-05T04:57:43.865Z,463.6
2022-11-05T05:01:47.233Z,463.6
2022-11-05T05:05:43.352Z,463.6
2022-11-05T05:09:42.578Z,463.6
2022-11-05T05:13:43.095Z,463.6
2022-11-05T05:17:42.534Z,463.6
2022-11-05T05:21:43.057Z,463.6
2022-11-05T05:25:49.096Z,463.6
2022-11-05T05:29:43.090Z,463.6
2022-11-05T05:33:44.017Z,463.6
2022-11-05T05:37:49.815Z,463.6
2022-11-05T05:41:42.631Z,463.6
2022-11-05T05:45:42.984Z,463.6
2022-11-05T05:49:46.414Z,463.6
2022-11-05T05:53:43.339Z,463.6
2022-11-05T05:57:43.471Z,463.6
2022-11-05T06:01:52.825Z,463.6
2022-11-05T06:05:42.906Z,463.6
2022-11-05T06:09:42.950Z,463.6
2022-11-05T06:13:44.134Z,463.6
2022-11-05T06:17:43.791Z,463.6
2022-11-05T06:21:43.082Z,463.6
2022-11-05T06:25:48.414Z,463.6
2022-11-05T06:29:42.886Z,463.6
2022-11-05T06:33:43.867Z,463.6
2022-11-05T06:37:43.405Z,463.6
2022-11-05T06:42:19.189Z,463.6
2022-11-05T06:45:42.816Z,463.6
2022-11-05T06:49:43.064Z,463.6
2022-11-05T06:53:48.629Z,463.6
2022-11-05T06:57:43.364Z,463.6
2022-11-05T07:01:51.011Z,463.6
2022-11-05T07:05:42.406Z,463.6
2022-11-05T07:09:42.452Z,463.6
2022-11-05T07:13:43.149Z,463.6
2022-11-05T07:17:43.537Z,463.6
2022-11-05T07:21:49.522Z,463.6
2022-11-05T07:25:43.124Z,463.6
2022-11-05T07:29:42.842Z,463.6
2022-11-05T07:33:48.100Z,463.6
2022-11-05T07:37:42.585Z,463.6
2022-11-05T07:41:42.851Z,463.6
2022-11-05T07:45:42.573Z,463.6
2022-11-05T07:49:42.636Z,463.6
2022-11-05T07:53:45.461Z,463.6
2022-11-05T07:57:43.674Z,463.6
2022-11-05T08:01:46.959Z,463.6
2022-11-05T08:05:43.100Z,463.6
2022-11-05T08:09:43.103Z,463.6
2022-11-05T08:13:45.638Z,463.6
2022-11-05T08:17:42.866Z,463.6
2022-11-05T08:21:43.046Z,463.6
2022-11-05T08:25:49.086Z,463.6
2022-11-05T08:29:43.139Z,463.6
2022-11-05T08:33:43.327Z,463.6
2022-11-05T08:37:42.629Z,463.6
2022-11-05T08:41:43.473Z,463.6
2022-11-05T08:45:43.347Z,463.6
2022-11-05T08:49:42.960Z,463.6
2022-11-05T08:53:43.143Z,463.6
2022-11-05T08:57:43.022Z,463.6
2022-11-05T09:01:51.342Z,463.6
2022-11-05T09:05:43.637Z,463.6
2022-11-05T09:09:43.528Z,463.6
2022-11-05T09:14:03.155Z,463.6
2022-11-05T09:17:43.149Z,463.6
2022-11-05T09:21:42.756Z,463.6
2022-11-05T09:25:43.289Z,463.6
2022-11-05T09:29:48.465Z,463.6
2022-11-05T09:33:44.355Z,463.6
2022-11-05T09:37:43.205Z,463.6
2022-11-05T09:41:43.152Z,463.6
2022-11-05T09:45:42.662Z,463.6
2022-11-05T09:49:43.514Z,463.6
2022-11-05T09:53:43.489Z,463.6
2022-11-05T09:57:42.796Z,463.6
2022-11-05T10:01:46.353Z,463.6
2022-11-05T10:05:44.816Z,463.6
2022-11-05T10:09:42.561Z,151.12
2022-11-05T10:13:43.176Z,151.12
2022-11-05T10:17:50.115Z,17.1
2022-11-05T10:22:18.646Z,6.29
2022-11-05T10:25:43.592Z,6.29
2022-11-05T10:29:43.900Z,3.61
2022-11-05T10:33:43.464Z,942.03
2022-11-05T10:37:42.681Z,942.03
2022-11-05T10:41:43.252Z,2.11
2022-11-05T10:45:49.018Z,1.53
2022-11-05T10:49:49.943Z,1.53
2022-11-05T10:53:43.265Z,463.6
2022-11-05T10:57:43.415Z,417.04
2022-11-05T11:01:46.881Z,417.04
2022-11-05T11:05:45.930Z,1.08
2022-11-05T11:09:43.451Z,356.22
2022-11-05T11:13:48.662Z,356.22
2022-11-05T11:17:42.826Z,0.95
2022-11-05T11:21:43.318Z,0.95
2022-11-05T11:25:43.031Z,0.95
2022-11-05T11:29:48.169Z,344.82
2022-11-05T11:33:43.467Z,0.93
2022-11-05T11:37:43.251Z,0.93
2022-11-05T11:41:42.798Z,0.9
2022-11-05T11:45:43.081Z,0.9
2022-11-05T11:49:42.658Z,0.9
2022-11-05T11:53:43.835Z,0.92
2022-11-05T11:57:48.972Z,328.19
2022-11-05T12:01:51.887Z,328.19
2022-11-05T12:05:43.003Z,0.86
2022-11-05T12:09:52.295Z,0.76
2022-11-05T12:13:43.266Z,0.76
2022-11-05T12:17:43.491Z,0.75
2022-11-05T12:22:14.337Z,0.71
2022-11-05T12:25:43.144Z,0.71
2022-11-05T12:30:20.859Z,0.71
2022-11-05T12:33:44.631Z,0.71
2022-11-05T12:37:43.006Z,0.71
2022-11-05T12:41:42.638Z,0.7
2022-11-05T12:45:42.691Z,0.68
2022-11-05T12:49:50.347Z,0.68
2022-11-05T12:53:44.004Z,276.64
2022-11-05T12:57:42.639Z,276.64
2022-11-05T13:01:46.549Z,276.64
2022-11-05T13:05:42.880Z,0.73
2022-11-05T13:09:43.255Z,0.72
2022-11-05T13:13:43.228Z,0.72
2022-11-05T13:17:43.167Z,0.77
2022-11-05T13:21:47.708Z,0.73
2022-11-05T13:25:43.165Z,0.73
2022-11-05T13:29:42.591Z,262.3
2022-11-05T13:33:43.890Z,0.72
2022-11-05T13:37:42.758Z,0.72
2022-11-05T13:41:42.803Z,253.01
2022-11-05T13:45:43.354Z,253.01
2022-11-05T13:49:43.063Z,253.01
2022-11-05T13:53:44.516Z,253.01
2022-11-05T13:57:43.097Z,253.01
2022-11-05T14:01:46.249Z,253.01
2022-11-05T14:05:46.788Z,253.01
2022-11-05T14:09:43.050Z,253.01
2022-11-05T14:13:43.948Z,253.01
2022-11-05T14:17:42.768Z,253.01
2022-11-05T14:21:43.302Z,253.01
2022-11-05T14:25:42.972Z,253.01
2022-11-05T14:29:43.410Z,253.01
2022-11-05T14:33:50.945Z,253.01
2022-11-05T14:37:42.958Z,253.01
2022-11-05T14:41:43.641Z,253.01
2022-11-05T14:45:42.822Z,11.92
2022-11-05T14:49:43.640Z,11.92
2022-11-05T14:53:43.489Z,11.92
2022-11-05T14:57:46.843Z,11.92
2022-11-05T15:01:49.489Z,11.92
2022-11-05T15:05:43.524Z,11.92
2022-11-05T15:09:42.995Z,11.92
2022-11-05T15:13:43.454Z,11.92
2022-11-05T15:17:43.101Z,11.92
2022-11-05T15:21:47.814Z,11.92
2022-11-05T15:25:43.375Z,11.92
2022-11-05T15:29:42.860Z,11.92
2022-11-05T15:33:46.726Z,11.92
2022-11-05T15:37:47.111Z,11.92
2022-11-05T15:41:43.224Z,11.92
2022-11-05T15:45:43.335Z,11.92
2022-11-05T15:49:43.046Z,11.92
2022-11-05T15:54:53.860Z,11.92
2022-11-05T15:57:47.866Z,11.92
2022-11-05T16:01:47.364Z,11.92
2022-11-05T16:05:50.804Z,11.92
2022-11-05T16:09:42.546Z,11.92
2022-11-05T16:13:43.534Z,11.92
2022-11-05T16:17:43.095Z,11.92
2022-11-05T16:21:43.062Z,11.92
2022-11-05T16:25:48.119Z,11.92
2022-11-05T16:29:43.234Z,11.92
2022-11-05T16:33:49.157Z,11.92
2022-11-05T16:37:46.430Z,11.92
2022-11-05T16:41:43.109Z,11.92
2022-11-05T16:45:42.693Z,11.92
2022-11-05T16:49:42.924Z,11.92
2022-11-05T16:53:42.759Z,11.92
2022-11-05T16:57:42.475Z,11.92
2022-11-05T17:01:49.263Z,11.92
2022-11-05T17:05:42.636Z,11.92
2022-11-05T17:09:44.131Z,11.92
2022-11-05T17:13:43.463Z,11.92
2022-11-05T17:17:42.937Z,11.92
2022-11-05T17:21:48.339Z,11.92
2022-11-05T17:25:43.425Z,11.92
2022-11-05T17:29:43.295Z,11.92
2022-11-05T17:33:45.592Z,11.92
2022-11-05T17:37:43.068Z,11.92
2022-11-05T17:41:43.343Z,11.92
2022-11-05T17:45:42.996Z,11.92
2022-11-05T17:49:42.958Z,11.92
2022-11-05T17:53:43.537Z,11.92
2022-11-05T17:57:52.748Z,11.92
2022-11-05T18:01:49.003Z,11.92
2022-11-05T18:05:51.213Z,11.92
2022-11-05T18:09:43.342Z,11.92
2022-11-05T18:13:43.634Z,11.92
2022-11-05T18:17:43.007Z,11.92
2022-11-05T18:21:49.332Z,11.92
2022-11-05T18:25:43.282Z,11.92
2022-11-05T18:29:43.850Z,11.92
2022-11-05T18:33:43.639Z,11.92
2022-11-05T18:37:47.008Z,11.92
2022-11-05T18:41:43.420Z,11.92
2022-11-05T18:45:52.501Z,11.92
2022-11-05T18:49:43.755Z,11.92
2022-11-05T18:53:43.030Z,11.92
2022-11-05T18:57:43.202Z,11.92
2022-11-05T19:01:52.627Z,11.92
2022-11-05T19:06:15.295Z,11.92
2022-11-05T19:09:43.761Z,11.92
2022-11-05T19:13:43.284Z,11.92
2022-11-05T19:17:42.779Z,11.92
2022-11-05T19:21:45.586Z,11.92
2022-11-05T19:25:47.157Z,11.92
2022-11-05T19:29:43.204Z,11.92
2022-11-05T19:33:42.504Z,11.92
2022-11-05T19:37:42.836Z,11.92
2022-11-05T19:41:43.138Z,11.92
2022-11-05T19:46:18.210Z,11.92
2022-11-05T19:49:49.486Z,11.92
2022-11-05T19:53:42.925Z,11.92
2022-11-05T19:57:43.590Z,11.92
2022-11-05T20:01:50.366Z,11.92
2022-11-05T20:05:43.333Z,11.92
2022-11-05T20:10:19.492Z,11.92
2022-11-05T20:13:43.171Z,11.92
2022-11-05T20:17:43.103Z,11.92
2022-11-05T20:21:43.429Z,11.92
2022-11-05T20:25:44.389Z,11.92
2022-11-05T20:29:47.278Z,11.92
2022-11-05T20:33:42.415Z,11.92
2022-11-05T20:37:42.902Z,11.92
2022-11-05T20:41:43.062Z,11.92
2022-11-05T20:45:42.765Z,11.92
2022-11-05T20:49:48.392Z,11.92
2022-11-05T20:53:42.498Z,11.92
2022-11-05T20:57:49.108Z,11.92
2022-11-05T21:01:46.478Z,11.92
2022-11-05T21:05:46.797Z,11.92
2022-11-05T21:09:42.989Z,11.92
2022-11-05T21:13:42.971Z,11.92
2022-11-05T21:17:48.379Z,11.92
2022-11-05T21:21:42.792Z,11.92
2022-11-05T21:25:43.335Z,11.92
2022-11-05T21:29:43.273Z,11.92
2022-11-05T21:33:42.887Z,11.92
2022-11-05T21:37:43.189Z,11.92
2022-11-05T21:41:43.218Z,11.92
2022-11-05T21:45:45.816Z,11.92
2022-11-05T21:49:43.790Z,11.92
2022-11-05T21:53:42.958Z,11.92
2022-11-05T21:57:44.908Z,11.92
2022-11-05T22:01:46.603Z,11.92
2022-11-05T22:05:44.686Z,11.92
2022-11-05T22:09:43.725Z,11.92
2022-11-05T22:13:42.779Z,11.92
2022-11-05T22:17:46.564Z,11.92
2022-11-05T22:21:43.204Z,11.92
2022-11-05T22:25:42.560Z,11.92
2022-11-05T22:29:43.396Z,11.92
2022-11-05T22:33:43.081Z,11.92
2022-11-05T22:37:43.294Z,11.92
2022-11-05T22:41:43.393Z,11.92
2022-11-05T22:45:43.267Z,11.92
2022-11-05T22:49:48.164Z,11.92
2022-11-05T22:53:43.362Z,11.92
2022-11-05T22:57:43.308Z,11.92
2022-11-05T23:01:50.636Z,11.92
2022-11-05T23:05:43.513Z,11.92
2022-11-05T23:09:43.228Z,11.92
2022-11-05T23:13:42.679Z,11.92
2022-11-05T23:17:42.554Z,11.92
2022-11-05T23:21:45.827Z,11.92
2022-11-05T23:25:43.087Z,11.92
2022-11-05T23:29:43.734Z,11.92
2022-11-05T23:33:43.358Z,11.92
2022-11-05T23:37:43.251Z,11.92
2022-11-05T23:41:42.877Z,11.92
2022-11-05T23:45:48.270Z,11.92
2022-11-05T23:49:44.634Z,11.92
2022-11-05T23:53:43.018Z,11.92
2022-11-05T23:57:42.761Z,11.92
